sensor_id;sensor_type;location;lat;lon;timestamp;temperature;humidity
75457;SHT31;64036;48.266;14.192;2023-07-13T00:01:57;20.16;80.50
75457;SHT31;64036;48.266;14.192;2023-07-13T00:04:24;20.19;80.41
75457;SHT31;64036;48.266;14.192;2023-07-13T00:06:51;20.25;80.28
75457;SHT31;64036;48.266;14.192;2023-07-13T00:09:17;20.29;80.08
75457;SHT31;64036;48.266;14.192;2023-07-13T00:11:44;20.31;80.02
75457;SHT31;64036;48.266;14.192;2023-07-13T00:14:14;20.27;80.21
75457;SHT31;64036;48.266;14.192;2023-07-13T00:16:41;20.27;80.30
75457;SHT31;64036;48.266;14.192;2023-07-13T00:19:09;20.29;80.20
75457;SHT31;64036;48.266;14.192;2023-07-13T00:21:36;20.30;80.10
75457;SHT31;64036;48.266;14.192;2023-07-13T00:24:03;20.31;80.18
75457;SHT31;64036;48.266;14.192;2023-07-13T00:26:30;20.33;80.18
75457;SHT31;64036;48.266;14.192;2023-07-13T00:28:57;20.36;80.10
75457;SHT31;64036;48.266;14.192;2023-07-13T00:31:24;20.33;80.23
75457;SHT31;64036;48.266;14.192;2023-07-13T00:33:50;20.30;80.40
75457;SHT31;64036;48.266;14.192;2023-07-13T00:36:16;20.31;80.36
75457;SHT31;64036;48.266;14.192;2023-07-13T00:38:42;20.28;80.44
75457;SHT31;64036;48.266;14.192;2023-07-13T00:41:09;20.26;80.55
75457;SHT31;64036;48.266;14.192;2023-07-13T00:43:35;20.28;80.56
75457;SHT31;64036;48.266;14.192;2023-07-13T00:48:32;20.30;80.32
75457;SHT31;64036;48.266;14.192;2023-07-13T00:51:00;20.30;80.27
75457;SHT31;64036;48.266;14.192;2023-07-13T00:53:27;20.27;80.31
75457;SHT31;64036;48.266;14.192;2023-07-13T00:55:55;20.21;80.43
75457;SHT31;64036;48.266;14.192;2023-07-13T00:58:23;20.21;80.56
75457;SHT31;64036;48.266;14.192;2023-07-13T01:00:51;20.22;80.40
75457;SHT31;64036;48.266;14.192;2023-07-13T01:03:18;20.19;80.31
75457;SHT31;64036;48.266;14.192;2023-07-13T01:05:44;20.21;80.26
75457;SHT31;64036;48.266;14.192;2023-07-13T01:08:13;20.21;80.21
75457;SHT31;64036;48.266;14.192;2023-07-13T01:10:39;20.19;80.30
75457;SHT31;64036;48.266;14.192;2023-07-13T01:13:05;20.19;80.30
75457;SHT31;64036;48.266;14.192;2023-07-13T01:18:02;20.23;80.30
75457;SHT31;64036;48.266;14.192;2023-07-13T01:20:29;20.23;80.30
75457;SHT31;64036;48.266;14.192;2023-07-13T01:22:55;20.26;80.29
75457;SHT31;64036;48.266;14.192;2023-07-13T01:25:21;20.27;80.23
75457;SHT31;64036;48.266;14.192;2023-07-13T01:27:46;20.28;80.27
75457;SHT31;64036;48.266;14.192;2023-07-13T01:30:12;20.30;80.29
75457;SHT31;64036;48.266;14.192;2023-07-13T01:32:38;20.30;80.30
75457;SHT31;64036;48.266;14.192;2023-07-13T01:35:07;20.30;80.34
75457;SHT31;64036;48.266;14.192;2023-07-13T01:37:32;20.32;80.33
75457;SHT31;64036;48.266;14.192;2023-07-13T01:40:01;20.36;80.22
75457;SHT31;64036;48.266;14.192;2023-07-13T01:42:29;20.39;80.10
75457;SHT31;64036;48.266;14.192;2023-07-13T01:44:55;20.40;80.17
75457;SHT31;64036;48.266;14.192;2023-07-13T01:47:22;20.42;80.15
75457;SHT31;64036;48.266;14.192;2023-07-13T01:49:48;20.41;80.19
75457;SHT31;64036;48.266;14.192;2023-07-13T01:52:15;20.41;80.17
75457;SHT31;64036;48.266;14.192;2023-07-13T01:54:41;20.43;80.18
75457;SHT31;64036;48.266;14.192;2023-07-13T01:57:07;20.43;80.10
75457;SHT31;64036;48.266;14.192;2023-07-13T01:59:32;20.45;80.10
75457;SHT31;64036;48.266;14.192;2023-07-13T02:01:58;20.45;80.10
75457;SHT31;64036;48.266;14.192;2023-07-13T02:04:24;20.45;80.11
75457;SHT31;64036;48.266;14.192;2023-07-13T02:06:49;20.46;80.13
75457;SHT31;64036;48.266;14.192;2023-07-13T02:09:15;20.47;80.12
75457;SHT31;64036;48.266;14.192;2023-07-13T02:11:40;20.47;80.06
75457;SHT31;64036;48.266;14.192;2023-07-13T02:14:06;20.48;79.93
75457;SHT31;64036;48.266;14.192;2023-07-13T02:16:32;20.49;79.82
75457;SHT31;64036;48.266;14.192;2023-07-13T02:18:57;20.49;79.80
75457;SHT31;64036;48.266;14.192;2023-07-13T02:21:23;20.48;79.80
75457;SHT31;64036;48.266;14.192;2023-07-13T02:23:49;20.47;79.91
75457;SHT31;64036;48.266;14.192;2023-07-13T02:26:15;20.47;79.99
75457;SHT31;64036;48.266;14.192;2023-07-13T02:28:41;20.41;80.11
75457;SHT31;64036;48.266;14.192;2023-07-13T02:31:07;20.38;80.28
75457;SHT31;64036;48.266;14.192;2023-07-13T02:33:35;20.39;80.32
75457;SHT31;64036;48.266;14.192;2023-07-13T02:36:01;20.42;80.21
75457;SHT31;64036;48.266;14.192;2023-07-13T02:38:28;20.44;80.19
75457;SHT31;64036;48.266;14.192;2023-07-13T02:40:54;20.47;80.11
75457;SHT31;64036;48.266;14.192;2023-07-13T02:43:19;20.48;80.13
75457;SHT31;64036;48.266;14.192;2023-07-13T02:45:45;20.45;80.19
75457;SHT31;64036;48.266;14.192;2023-07-13T02:48:12;20.44;80.27
75457;SHT31;64036;48.266;14.192;2023-07-13T02:50:39;20.46;80.22
75457;SHT31;64036;48.266;14.192;2023-07-13T02:53:05;20.47;80.12
75457;SHT31;64036;48.266;14.192;2023-07-13T02:55:30;20.48;80.04
75457;SHT31;64036;48.266;14.192;2023-07-13T02:57:56;20.48;79.96
75457;SHT31;64036;48.266;14.192;2023-07-13T03:00:22;20.46;79.93
75457;SHT31;64036;48.266;14.192;2023-07-13T03:02:49;20.43;80.09
75457;SHT31;64036;48.266;14.192;2023-07-13T03:05:14;20.44;80.07
75457;SHT31;64036;48.266;14.192;2023-07-13T03:07:41;20.43;79.98
75457;SHT31;64036;48.266;14.192;2023-07-13T03:10:07;20.42;79.98
75457;SHT31;64036;48.266;14.192;2023-07-13T03:12:34;20.42;79.99
75457;SHT31;64036;48.266;14.192;2023-07-13T03:14:59;20.43;80.00
75457;SHT31;64036;48.266;14.192;2023-07-13T03:17:25;20.43;80.02
75457;SHT31;64036;48.266;14.192;2023-07-13T03:19:51;20.45;79.99
75457;SHT31;64036;48.266;14.192;2023-07-13T03:22:17;20.47;79.89
75457;SHT31;64036;48.266;14.192;2023-07-13T03:24:43;20.47;79.79
75457;SHT31;64036;48.266;14.192;2023-07-13T03:27:10;20.47;79.80
75457;SHT31;64036;48.266;14.192;2023-07-13T03:29:35;20.46;79.82
75457;SHT31;64036;48.266;14.192;2023-07-13T03:32:01;20.44;79.93
75457;SHT31;64036;48.266;14.192;2023-07-13T03:34:27;20.44;80.00
75457;SHT31;64036;48.266;14.192;2023-07-13T03:36:56;20.45;79.96
75457;SHT31;64036;48.266;14.192;2023-07-13T03:39:22;20.46;79.92
75457;SHT31;64036;48.266;14.192;2023-07-13T03:41:48;20.47;79.90
75457;SHT31;64036;48.266;14.192;2023-07-13T03:44:15;20.46;79.89
75457;SHT31;64036;48.266;14.192;2023-07-13T03:46:43;20.44;79.92
75457;SHT31;64036;48.266;14.192;2023-07-13T03:49:09;20.41;80.11
75457;SHT31;64036;48.266;14.192;2023-07-13T03:51:35;20.40;80.27
75457;SHT31;64036;48.266;14.192;2023-07-13T03:54:01;20.40;80.30
75457;SHT31;64036;48.266;14.192;2023-07-13T03:56:27;20.37;80.33
75457;SHT31;64036;48.266;14.192;2023-07-13T03:58:54;20.34;80.52
75457;SHT31;64036;48.266;14.192;2023-07-13T04:01:20;20.29;80.72
75457;SHT31;64036;48.266;14.192;2023-07-13T04:03:48;20.25;80.83
75457;SHT31;64036;48.266;14.192;2023-07-13T04:06:16;20.23;80.96
75457;SHT31;64036;48.266;14.192;2023-07-13T04:08:51;20.25;81.03
75457;SHT31;64036;48.266;14.192;2023-07-13T04:11:20;20.28;81.00
75457;SHT31;64036;48.266;14.192;2023-07-13T04:13:50;20.31;81.01
75457;SHT31;64036;48.266;14.192;2023-07-13T04:16:16;20.33;81.04
75457;SHT31;64036;48.266;14.192;2023-07-13T04:18:44;20.38;80.97
75457;SHT31;64036;48.266;14.192;2023-07-13T04:21:11;20.39;80.95
75457;SHT31;64036;48.266;14.192;2023-07-13T04:23:37;20.42;80.88
75457;SHT31;64036;48.266;14.192;2023-07-13T04:26:04;20.44;80.89
75457;SHT31;64036;48.266;14.192;2023-07-13T04:28:30;20.46;80.87
75457;SHT31;64036;48.266;14.192;2023-07-13T04:30:56;20.46;80.97
75457;SHT31;64036;48.266;14.192;2023-07-13T04:33:21;20.48;80.98
75457;SHT31;64036;48.266;14.192;2023-07-13T04:35:48;20.53;80.89
75457;SHT31;64036;48.266;14.192;2023-07-13T04:38:21;20.58;80.81
75457;SHT31;64036;48.266;14.192;2023-07-13T04:40:55;20.60;80.85
75457;SHT31;64036;48.266;14.192;2023-07-13T04:43:23;20.62;80.87
75457;SHT31;64036;48.266;14.192;2023-07-13T04:45:50;20.65;80.72
75457;SHT31;64036;48.266;14.192;2023-07-13T04:48:17;20.69;80.73
75457;SHT31;64036;48.266;14.192;2023-07-13T04:50:43;20.74;80.60
75457;SHT31;64036;48.266;14.192;2023-07-13T04:53:08;20.78;80.45
75457;SHT31;64036;48.266;14.192;2023-07-13T04:55:36;20.82;80.39
75457;SHT31;64036;48.266;14.192;2023-07-13T04:58:02;20.86;80.36
75457;SHT31;64036;48.266;14.192;2023-07-13T05:00:28;20.91;80.32
75457;SHT31;64036;48.266;14.192;2023-07-13T05:02:55;20.97;80.29
75457;SHT31;64036;48.266;14.192;2023-07-13T05:05:23;21.04;80.24
75457;SHT31;64036;48.266;14.192;2023-07-13T05:07:50;21.11;80.12
75457;SHT31;64036;48.266;14.192;2023-07-13T05:10:17;21.18;80.02
75457;SHT31;64036;48.266;14.192;2023-07-13T05:12:43;21.23;80.00
75457;SHT31;64036;48.266;14.192;2023-07-13T05:15:09;21.29;79.96
75457;SHT31;64036;48.266;14.192;2023-07-13T05:17:35;21.33;79.83
75457;SHT31;64036;48.266;14.192;2023-07-13T05:20:00;21.37;79.68
75457;SHT31;64036;48.266;14.192;2023-07-13T05:22:26;21.41;79.59
75457;SHT31;64036;48.266;14.192;2023-07-13T05:24:52;21.47;79.55
75457;SHT31;64036;48.266;14.192;2023-07-13T05:27:17;21.50;79.49
75457;SHT31;64036;48.266;14.192;2023-07-13T05:29:43;21.51;79.40
75457;SHT31;64036;48.266;14.192;2023-07-13T05:32:09;21.54;79.34
75457;SHT31;64036;48.266;14.192;2023-07-13T05:34:34;21.57;79.30
75457;SHT31;64036;48.266;14.192;2023-07-13T05:37:00;21.62;79.31
75457;SHT31;64036;48.266;14.192;2023-07-13T05:39:26;21.70;79.31
75457;SHT31;64036;48.266;14.192;2023-07-13T05:41:52;21.76;79.15
75457;SHT31;64036;48.266;14.192;2023-07-13T05:44:18;21.82;79.15
75457;SHT31;64036;48.266;14.192;2023-07-13T05:46:44;21.85;79.06
75457;SHT31;64036;48.266;14.192;2023-07-13T05:49:10;21.88;79.02
75457;SHT31;64036;48.266;14.192;2023-07-13T05:51:36;21.93;79.09
75457;SHT31;64036;48.266;14.192;2023-07-13T05:54:02;21.98;79.00
75457;SHT31;64036;48.266;14.192;2023-07-13T05:56:28;22.07;78.97
75457;SHT31;64036;48.266;14.192;2023-07-13T05:58:54;22.15;78.78
75457;SHT31;64036;48.266;14.192;2023-07-13T06:01:19;22.18;78.61
75457;SHT31;64036;48.266;14.192;2023-07-13T06:03:47;22.15;78.42
75457;SHT31;64036;48.266;14.192;2023-07-13T06:06:13;22.10;78.28
75457;SHT31;64036;48.266;14.192;2023-07-13T06:08:40;22.04;78.17
75457;SHT31;64036;48.266;14.192;2023-07-13T06:11:14;22.00;78.19
75457;SHT31;64036;48.266;14.192;2023-07-13T06:13:42;22.00;78.16
75457;SHT31;64036;48.266;14.192;2023-07-13T06:16:08;21.99;78.18
75457;SHT31;64036;48.266;14.192;2023-07-13T06:18:34;22.00;78.29
75457;SHT31;64036;48.266;14.192;2023-07-13T06:21:10;22.01;78.27
75457;SHT31;64036;48.266;14.192;2023-07-13T06:23:39;22.04;78.22
75457;SHT31;64036;48.266;14.192;2023-07-13T06:26:05;22.08;78.21
75457;SHT31;64036;48.266;14.192;2023-07-13T06:28:31;22.14;78.15
75457;SHT31;64036;48.266;14.192;2023-07-13T06:30:58;22.21;78.17
75457;SHT31;64036;48.266;14.192;2023-07-13T06:33:25;22.26;77.87
75457;SHT31;64036;48.266;14.192;2023-07-13T06:35:51;22.31;77.59
75457;SHT31;64036;48.266;14.192;2023-07-13T06:38:18;22.34;77.53
75457;SHT31;64036;48.266;14.192;2023-07-13T06:40:44;22.38;77.49
75457;SHT31;64036;48.266;14.192;2023-07-13T06:43:09;22.42;77.22
75457;SHT31;64036;48.266;14.192;2023-07-13T06:45:39;22.46;77.13
75457;SHT31;64036;48.266;14.192;2023-07-13T06:48:18;22.49;76.98
75457;SHT31;64036;48.266;14.192;2023-07-13T06:50:44;22.51;77.00
75457;SHT31;64036;48.266;14.192;2023-07-13T06:53:11;22.55;76.88
75457;SHT31;64036;48.266;14.192;2023-07-13T06:55:38;22.63;76.88
75457;SHT31;64036;48.266;14.192;2023-07-13T06:58:04;22.71;76.66
75457;SHT31;64036;48.266;14.192;2023-07-13T07:00:31;22.76;76.28
75457;SHT31;64036;48.266;14.192;2023-07-13T07:02:57;22.82;76.30
75457;SHT31;64036;48.266;14.192;2023-07-13T07:05:22;22.95;76.01
75457;SHT31;64036;48.266;14.192;2023-07-13T07:07:52;23.09;75.60
75457;SHT31;64036;48.266;14.192;2023-07-13T07:10:20;23.29;75.31
75457;SHT31;64036;48.266;14.192;2023-07-13T07:12:46;23.54;75.10
75457;SHT31;64036;48.266;14.192;2023-07-13T07:15:12;23.83;74.48
75457;SHT31;64036;48.266;14.192;2023-07-13T07:17:38;24.17;74.11
75457;SHT31;64036;48.266;14.192;2023-07-13T07:20:04;24.45;73.07
75457;SHT31;64036;48.266;14.192;2023-07-13T07:22:30;24.72;72.09
75457;SHT31;64036;48.266;14.192;2023-07-13T07:24:57;25.26;71.28
75457;SHT31;64036;48.266;14.192;2023-07-13T07:27:23;25.84;70.24
75457;SHT31;64036;48.266;14.192;2023-07-13T07:29:49;26.32;69.01
75457;SHT31;64036;48.266;14.192;2023-07-13T07:32:15;26.60;66.85
75457;SHT31;64036;48.266;14.192;2023-07-13T07:34:40;26.95;66.41
75457;SHT31;64036;48.266;14.192;2023-07-13T07:37:06;28.15;65.08
75457;SHT31;64036;48.266;14.192;2023-07-13T07:39:31;28.96;60.73
75457;SHT31;64036;48.266;14.192;2023-07-13T07:41:58;29.20;60.05
75457;SHT31;64036;48.266;14.192;2023-07-13T07:44:23;29.56;59.20
75457;SHT31;64036;48.266;14.192;2023-07-13T07:46:49;30.00;57.61
75457;SHT31;64036;48.266;14.192;2023-07-13T07:49:15;30.23;56.35
75457;SHT31;64036;48.266;14.192;2023-07-13T07:51:41;30.08;57.10
75457;SHT31;64036;48.266;14.192;2023-07-13T07:54:06;29.58;56.49
75457;SHT31;64036;48.266;14.192;2023-07-13T07:56:32;28.87;58.08
75457;SHT31;64036;48.266;14.192;2023-07-13T07:58:58;28.33;58.37
75457;SHT31;64036;48.266;14.192;2023-07-13T08:01:23;27.96;59.30
75457;SHT31;64036;48.266;14.192;2023-07-13T08:03:49;27.62;59.65
75457;SHT31;64036;48.266;14.192;2023-07-13T08:06:15;27.29;60.44
75457;SHT31;64036;48.266;14.192;2023-07-13T08:08:41;27.13;61.16
75457;SHT31;64036;48.266;14.192;2023-07-13T08:11:07;27.06;61.73
75457;SHT31;64036;48.266;14.192;2023-07-13T08:13:34;26.90;61.46
75457;SHT31;64036;48.266;14.192;2023-07-13T08:16:00;26.55;61.49
75457;SHT31;64036;48.266;14.192;2023-07-13T08:18:29;26.12;62.07
75457;SHT31;64036;48.266;14.192;2023-07-13T08:20:54;25.85;62.49
75457;SHT31;64036;48.266;14.192;2023-07-13T08:23:24;25.62;63.07
75457;SHT31;64036;48.266;14.192;2023-07-13T08:25:51;25.36;63.52
75457;SHT31;64036;48.266;14.192;2023-07-13T08:28:18;25.19;64.12
75457;SHT31;64036;48.266;14.192;2023-07-13T08:30:46;25.11;64.52
75457;SHT31;64036;48.266;14.192;2023-07-13T08:33:15;25.09;64.68
75457;SHT31;64036;48.266;14.192;2023-07-13T08:35:42;25.01;64.89
75457;SHT31;64036;48.266;14.192;2023-07-13T08:38:12;24.86;64.73
75457;SHT31;64036;48.266;14.192;2023-07-13T08:40:38;24.63;64.82
75457;SHT31;64036;48.266;14.192;2023-07-13T08:43:06;24.43;65.31
75457;SHT31;64036;48.266;14.192;2023-07-13T08:45:45;24.33;66.15
75457;SHT31;64036;48.266;14.192;2023-07-13T08:48:23;24.30;66.39
75457;SHT31;64036;48.266;14.192;2023-07-13T08:50:57;24.27;66.24
75457;SHT31;64036;48.266;14.192;2023-07-13T08:53:34;24.29;66.04
75457;SHT31;64036;48.266;14.192;2023-07-13T08:56:07;24.30;65.93
75457;SHT31;64036;48.266;14.192;2023-07-13T08:58:54;24.27;65.99
75457;SHT31;64036;48.266;14.192;2023-07-13T09:01:35;24.27;66.18
75457;SHT31;64036;48.266;14.192;2023-07-13T09:04:42;24.34;66.31
75457;SHT31;64036;48.266;14.192;2023-07-13T09:10:20;24.52;66.44
75457;SHT31;64036;48.266;14.192;2023-07-13T09:15:37;24.89;65.78
75457;SHT31;64036;48.266;14.192;2023-07-13T09:23:20;25.34;64.09
75457;SHT31;64036;48.266;14.192;2023-07-13T09:25:49;25.31;63.66
75457;SHT31;64036;48.266;14.192;2023-07-13T09:28:32;25.22;63.08
75457;SHT31;64036;48.266;14.192;2023-07-13T09:33:49;25.03;63.27
75457;SHT31;64036;48.266;14.192;2023-07-13T09:38:42;24.91;62.83
75457;SHT31;64036;48.266;14.192;2023-07-13T09:41:22;24.86;62.89
75457;SHT31;64036;48.266;14.192;2023-07-13T09:44:16;24.80;63.09
75457;SHT31;64036;48.266;14.192;2023-07-13T09:46:55;24.71;63.12
75457;SHT31;64036;48.266;14.192;2023-07-13T09:49:28;24.69;63.17
75457;SHT31;64036;48.266;14.192;2023-07-13T09:52:00;24.66;63.60
75457;SHT31;64036;48.266;14.192;2023-07-13T09:54:33;24.65;63.56
75457;SHT31;64036;48.266;14.192;2023-07-13T09:57:01;24.71;63.97
75457;SHT31;64036;48.266;14.192;2023-07-13T09:59:39;24.81;64.16
75457;SHT31;64036;48.266;14.192;2023-07-13T10:07:30;24.99;63.63
75457;SHT31;64036;48.266;14.192;2023-07-13T10:10:00;24.92;63.13
75457;SHT31;64036;48.266;14.192;2023-07-13T10:12:28;24.94;63.37
75457;SHT31;64036;48.266;14.192;2023-07-13T10:14:59;24.95;63.53
75457;SHT31;64036;48.266;14.192;2023-07-13T10:17:27;25.11;63.51
75457;SHT31;64036;48.266;14.192;2023-07-13T10:19:59;25.25;63.38
75457;SHT31;64036;48.266;14.192;2023-07-13T10:22:36;25.40;62.09
75457;SHT31;64036;48.266;14.192;2023-07-13T10:25:20;25.53;61.72
75457;SHT31;64036;48.266;14.192;2023-07-13T10:27:50;25.59;61.44
75457;SHT31;64036;48.266;14.192;2023-07-13T10:30:21;25.64;61.51
75457;SHT31;64036;48.266;14.192;2023-07-13T10:32:50;25.69;60.93
75457;SHT31;64036;48.266;14.192;2023-07-13T10:35:18;25.76;61.41
75457;SHT31;64036;48.266;14.192;2023-07-13T10:37:55;25.87;61.48
75457;SHT31;64036;48.266;14.192;2023-07-13T10:40:38;25.95;61.44
75457;SHT31;64036;48.266;14.192;2023-07-13T10:43:19;25.97;60.58
75457;SHT31;64036;48.266;14.192;2023-07-13T10:45:52;26.04;60.45
75457;SHT31;64036;48.266;14.192;2023-07-13T10:48:19;26.01;60.01
75457;SHT31;64036;48.266;14.192;2023-07-13T10:50:49;25.93;59.86
75457;SHT31;64036;48.266;14.192;2023-07-13T10:53:30;25.87;59.85
75457;SHT31;64036;48.266;14.192;2023-07-13T10:55:59;25.93;60.31
75457;SHT31;64036;48.266;14.192;2023-07-13T10:58:38;26.11;60.04
75457;SHT31;64036;48.266;14.192;2023-07-13T11:03:32;26.41;59.34
75457;SHT31;64036;48.266;14.192;2023-07-13T11:18:52;26.48;58.46
75457;SHT31;64036;48.266;14.192;2023-07-13T11:21:31;26.47;57.46
75457;SHT31;64036;48.266;14.192;2023-07-13T11:31:57;26.80;59.28
75457;SHT31;64036;48.266;14.192;2023-07-13T11:34:36;26.99;58.92
75457;SHT31;64036;48.266;14.192;2023-07-13T11:37:08;26.87;58.86
75457;SHT31;64036;48.266;14.192;2023-07-13T11:39:39;26.65;59.61
75457;SHT31;64036;48.266;14.192;2023-07-13T11:42:17;26.63;59.91
75457;SHT31;64036;48.266;14.192;2023-07-13T11:44:49;26.65;60.22
75457;SHT31;64036;48.266;14.192;2023-07-13T11:47:20;26.59;60.36
75457;SHT31;64036;48.266;14.192;2023-07-13T11:49:51;26.58;60.34
75457;SHT31;64036;48.266;14.192;2023-07-13T11:52:22;26.58;60.03
75457;SHT31;64036;48.266;14.192;2023-07-13T11:55:00;26.71;59.49
75457;SHT31;64036;48.266;14.192;2023-07-13T11:57:30;26.91;59.41
75457;SHT31;64036;48.266;14.192;2023-07-13T12:00:00;27.21;59.05
75457;SHT31;64036;48.266;14.192;2023-07-13T12:02:43;27.68;58.52
75457;SHT31;64036;48.266;14.192;2023-07-13T12:05:15;28.09;57.55
75457;SHT31;64036;48.266;14.192;2023-07-13T12:07:43;28.44;57.01
75457;SHT31;64036;48.266;14.192;2023-07-13T12:13:01;28.42;56.04
75457;SHT31;64036;48.266;14.192;2023-07-13T12:15:41;28.27;56.20
75457;SHT31;64036;48.266;14.192;2023-07-13T12:18:15;28.34;56.09
75457;SHT31;64036;48.266;14.192;2023-07-13T12:20:46;28.51;56.05
75457;SHT31;64036;48.266;14.192;2023-07-13T12:23:21;28.84;56.10
75457;SHT31;64036;48.266;14.192;2023-07-13T12:25:53;29.26;55.18
75457;SHT31;64036;48.266;14.192;2023-07-13T12:28:31;29.67;54.66
75457;SHT31;64036;48.266;14.192;2023-07-13T12:30:59;29.90;53.24
75457;SHT31;64036;48.266;14.192;2023-07-13T12:33:33;29.87;53.60
75457;SHT31;64036;48.266;14.192;2023-07-13T12:36:03;29.93;53.26
75457;SHT31;64036;48.266;14.192;2023-07-13T12:38:31;29.99;52.70
75457;SHT31;64036;48.266;14.192;2023-07-13T12:40:57;29.92;51.61
75457;SHT31;64036;48.266;14.192;2023-07-13T12:43:24;29.59;51.14
75457;SHT31;64036;48.266;14.192;2023-07-13T12:45:59;29.16;48.91
75457;SHT31;64036;48.266;14.192;2023-07-13T12:48:30;28.69;48.87
75457;SHT31;64036;48.266;14.192;2023-07-13T12:51:08;28.43;49.10
75457;SHT31;64036;48.266;14.192;2023-07-13T12:53:42;28.24;49.90
75457;SHT31;64036;48.266;14.192;2023-07-13T12:56:23;28.22;50.51
75457;SHT31;64036;48.266;14.192;2023-07-13T12:58:58;28.32;51.23
75457;SHT31;64036;48.266;14.192;2023-07-13T13:01:29;28.46;51.28
75457;SHT31;64036;48.266;14.192;2023-07-13T13:04:00;28.52;50.66
75457;SHT31;64036;48.266;14.192;2023-07-13T13:06:32;28.52;49.87
75457;SHT31;64036;48.266;14.192;2023-07-13T13:09:01;28.57;50.40
75457;SHT31;64036;48.266;14.192;2023-07-13T13:11:28;28.56;50.43
75457;SHT31;64036;48.266;14.192;2023-07-13T13:13:56;28.56;50.44
75457;SHT31;64036;48.266;14.192;2023-07-13T13:18:50;28.36;49.92
75457;SHT31;64036;48.266;14.192;2023-07-13T13:21:18;28.33;50.39
75457;SHT31;64036;48.266;14.192;2023-07-13T13:23:46;28.36;50.06
75457;SHT31;64036;48.266;14.192;2023-07-13T13:26:13;28.40;49.97
75457;SHT31;64036;48.266;14.192;2023-07-13T13:28:43;28.32;49.33
75457;SHT31;64036;48.266;14.192;2023-07-13T13:31:09;28.14;48.88
75457;SHT31;64036;48.266;14.192;2023-07-13T13:33:38;27.94;49.19
75457;SHT31;64036;48.266;14.192;2023-07-13T13:36:16;27.78;49.92
75457;SHT31;64036;48.266;14.192;2023-07-13T13:38:45;27.71;50.28
75457;SHT31;64036;48.266;14.192;2023-07-13T13:41:13;27.64;50.13
75457;SHT31;64036;48.266;14.192;2023-07-13T13:43:40;27.52;50.42
75457;SHT31;64036;48.266;14.192;2023-07-13T13:46:15;27.43;51.09
75457;SHT31;64036;48.266;14.192;2023-07-13T13:48:44;27.27;51.40
75457;SHT31;64036;48.266;14.192;2023-07-13T13:51:15;27.12;51.90
75457;SHT31;64036;48.266;14.192;2023-07-13T13:53:48;27.08;52.55
75457;SHT31;64036;48.266;14.192;2023-07-13T13:56:15;27.04;52.45
75457;SHT31;64036;48.266;14.192;2023-07-13T13:58:43;27.05;51.99
75457;SHT31;64036;48.266;14.192;2023-07-13T14:01:13;27.06;50.96
75457;SHT31;64036;48.266;14.192;2023-07-13T14:03:45;27.11;50.56
75457;SHT31;64036;48.266;14.192;2023-07-13T14:06:14;27.20;49.85
75457;SHT31;64036;48.266;14.192;2023-07-13T14:08:41;27.31;49.13
75457;SHT31;64036;48.266;14.192;2023-07-13T14:11:15;27.46;48.87
75457;SHT31;64036;48.266;14.192;2023-07-13T14:13:48;27.67;49.53
75457;SHT31;64036;48.266;14.192;2023-07-13T14:16:18;27.91;49.55
75457;SHT31;64036;48.266;14.192;2023-07-13T14:18:46;28.00;48.00
75457;SHT31;64036;48.266;14.192;2023-07-13T14:21:14;27.96;48.13
75457;SHT31;64036;48.266;14.192;2023-07-13T14:23:44;27.91;47.10
75457;SHT31;64036;48.266;14.192;2023-07-13T14:26:12;27.73;46.64
75457;SHT31;64036;48.266;14.192;2023-07-13T14:28:42;27.54;47.07
75457;SHT31;64036;48.266;14.192;2023-07-13T14:31:11;27.36;46.89
75457;SHT31;64036;48.266;14.192;2023-07-13T14:33:39;27.22;47.28
75457;SHT31;64036;48.266;14.192;2023-07-13T14:36:12;27.17;47.59
75457;SHT31;64036;48.266;14.192;2023-07-13T14:38:46;27.09;47.25
75457;SHT31;64036;48.266;14.192;2023-07-13T14:41:26;26.91;47.21
75457;SHT31;64036;48.266;14.192;2023-07-13T14:43:52;26.76;47.24
75457;SHT31;64036;48.266;14.192;2023-07-13T14:49:00;26.63;47.33
75457;SHT31;64036;48.266;14.192;2023-07-13T14:51:52;26.59;48.56
75457;SHT31;64036;48.266;14.192;2023-07-13T14:54:18;26.64;49.36
75457;SHT31;64036;48.266;14.192;2023-07-13T14:56:44;26.60;49.21
75457;SHT31;64036;48.266;14.192;2023-07-13T14:59:09;26.53;48.43
75457;SHT31;64036;48.266;14.192;2023-07-13T15:01:39;26.47;48.19
75457;SHT31;64036;48.266;14.192;2023-07-13T15:04:06;26.38;47.64
75457;SHT31;64036;48.266;14.192;2023-07-13T15:06:39;26.30;47.99
75457;SHT31;64036;48.266;14.192;2023-07-13T15:09:26;26.26;47.35
75457;SHT31;64036;48.266;14.192;2023-07-13T15:11:54;26.23;47.61
75457;SHT31;64036;48.266;14.192;2023-07-13T15:14:21;26.19;47.49
75457;SHT31;64036;48.266;14.192;2023-07-13T15:16:49;26.08;47.11
75457;SHT31;64036;48.266;14.192;2023-07-13T15:19:18;26.01;47.76
75457;SHT31;64036;48.266;14.192;2023-07-13T15:21:45;26.01;48.17
75457;SHT31;64036;48.266;14.192;2023-07-13T15:24:13;26.01;47.73
75457;SHT31;64036;48.266;14.192;2023-07-13T15:26:39;26.05;47.90
75457;SHT31;64036;48.266;14.192;2023-07-13T15:29:05;26.08;48.50
75457;SHT31;64036;48.266;14.192;2023-07-13T15:31:31;26.11;48.09
75457;SHT31;64036;48.266;14.192;2023-07-13T15:33:58;26.16;47.85
75457;SHT31;64036;48.266;14.192;2023-07-13T15:36:25;26.19;47.21
75457;SHT31;64036;48.266;14.192;2023-07-13T15:38:52;26.14;46.84
75457;SHT31;64036;48.266;14.192;2023-07-13T15:41:24;26.15;47.60
75457;SHT31;64036;48.266;14.192;2023-07-13T15:43:56;26.20;47.91
75457;SHT31;64036;48.266;14.192;2023-07-13T15:46:26;26.30;48.09
75457;SHT31;64036;48.266;14.192;2023-07-13T15:48:53;26.34;47.48
75457;SHT31;64036;48.266;14.192;2023-07-13T15:51:22;26.33;46.60
75457;SHT31;64036;48.266;14.192;2023-07-13T15:53:53;26.22;46.08
75457;SHT31;64036;48.266;14.192;2023-07-13T15:56:32;26.12;45.91
75457;SHT31;64036;48.266;14.192;2023-07-13T15:59:00;26.13;46.54
75457;SHT31;64036;48.266;14.192;2023-07-13T16:01:27;26.19;46.02
75457;SHT31;64036;48.266;14.192;2023-07-13T16:03:55;26.19;46.09
75457;SHT31;64036;48.266;14.192;2023-07-13T16:06:28;26.19;46.73
75457;SHT31;64036;48.266;14.192;2023-07-13T16:09:00;26.21;46.57
75457;SHT31;64036;48.266;14.192;2023-07-13T16:11:36;26.20;45.40
75457;SHT31;64036;48.266;14.192;2023-07-13T16:14:04;26.23;45.10
75457;SHT31;64036;48.266;14.192;2023-07-13T16:16:32;26.28;45.29
75457;SHT31;64036;48.266;14.192;2023-07-13T16:19:01;26.31;45.63
75457;SHT31;64036;48.266;14.192;2023-07-13T16:21:31;26.26;45.43
75457;SHT31;64036;48.266;14.192;2023-07-13T16:24:18;26.26;46.57